Latest Weather Observations for Eucla

IDW60801

Issued at 9:32 pm WST Sunday 24 May 2015 (issued every 30 minutes, with the page automatically refreshed every 10 minutes)

About weather observations | Map of weather stations | Latest weather observations for WA | Other Formats
Station Details ID: 011003 Name: EUCLA Lat: -31.68 Lon: 128.90 Height: 93.1 m
Data from the previous 72 hours. | See also: Recent months at Eucla
Date/Time
WST
Temp
°C
App
Temp
°C
Dew
Point
Rel
Hum
%
Delta-T
°C
Wind Press
QNH
hPa
Press
MSL
hPa
Rain
since 9 am
mm
Dir
 
Spd
km/h
Gust
km/h
Spd
kts
Gust
kts
24/09:30pm 15.6 14.1 11.8 78 2.1 ENE 11 15 6 8 1023.2 1023.1 0.2
24/09:00pm 15.5 14.1 12.1 80 1.9 ENE 11 15 6 8 1023.2 1023.1 0.2
24/08:30pm 15.5 14.2 12.4 82 1.7 ENE 11 17 6 9 1023.2 1023.1 0.2
24/08:00pm 15.6 13.9 12.4 81 1.8 ENE 13 17 7 9 1023.1 1023.0 0.2
24/07:30pm 15.5 14.1 12.1 80 1.9 E 11 19 6 10 1023.0 1022.9 0.2
24/07:00pm 15.3 13.8 11.9 80 1.8 E 11 15 6 8 1022.9 1022.8 0.2
24/06:30pm 15.5 13.6 11.9 79 2.0 E 13 20 7 11 1022.9 1022.8 0.2
24/06:00pm 15.5 13.5 11.5 77 2.2 E 13 19 7 10 1022.7 1022.6 0.2
24/05:30pm 15.4 13.4 11.4 77 2.2 E 13 19 7 10 1022.6 1022.5 0.2
24/05:00pm 15.3 13.3 11.5 78 2.0 E 13 19 7 10 1022.1 1022.0 0.2
24/04:30pm 15.3 13.6 11.3 77 2.2 ESE 11 17 6 9 1021.8 1021.7 0.2
24/04:00pm 16.0 13.5 11.2 73 2.6 ESE 15 22 8 12 1021.5 1021.4 0.2
24/03:30pm 16.7 13.9 11.2 70 3.0 ESE 17 26 9 14 1021.2 1021.1 0.2
24/03:00pm 16.9 14.1 11.2 69 3.1 ESE 17 24 9 13 1021.1 1021.0 0.2
24/02:30pm 17.6 14.3 11.6 68 3.3 ESE 20 28 11 15 1021.0 1020.9 0.2
24/02:00pm 17.9 15.6 11.9 68 3.3 SE 15 20 8 11 1020.8 1020.7 0.2
24/01:30pm 19.0 17.9 11.8 63 4.0 ENE 9 20 5 11 1020.9 1020.8 0.2
24/01:00pm 20.0 18.1 10.4 54 5.2 N 11 20 6 11 1021.1 1021.0 0.2
24/12:30pm 20.3 16.4 5.5 38 7.3 N 15 30 8 16 1021.2 1021.1 0.2
24/12:00pm 19.9 16.4 7.0 43 6.5 NNE 15 26 8 14 1021.7 1021.6 0.0
24/11:30am 18.8 15.4 9.0 53 5.1 NNE 17 22 9 12 1022.1 1022.0 0.0
24/11:00am 17.9 15.7 10.8 63 3.8 NNE 13 19 7 10 1022.4 1022.3 0.0
24/10:30am 16.6 14.9 11.1 70 3.0 NNE 11 17 6 9 1022.7 1022.6 0.0
24/10:00am 14.6 12.5 11.0 79 1.9 NNE 13 19 7 10 1023.2 1023.1 0.0
24/09:30am 12.8 10.7 11.2 90 0.8 NNE 13 17 7 9 1023.3 1023.2 0.0
24/09:00am 12.0 9.7 10.6 91 0.7 NNE 13 17 7 9 1023.3 1023.2 0.2
24/08:30am 11.9 8.9 9.3 84 1.3 N 15 20 8 11 1023.2 1023.1 0.0
24/08:00am 11.4 8.4 9.3 87 1.1 N 15 19 8 10 1023.2 1023.1 0.0
24/07:30am 11.0 8.0 9.3 89 0.9 N 15 24 8 13 1023.0 1022.9 0.0
24/07:00am 11.4 7.2 8.3 81 1.5 N 20 30 11 16 1022.8 1022.7 0.0
24/06:30am 12.0 7.2 7.3 73 2.3 N 22 32 12 17 1022.5 1022.4 0.0
24/06:00am 12.8 8.2 6.4 65 3.0 N 20 32 11 17 1022.3 1022.2 0.0
24/05:30am 12.8 8.2 5.7 62 3.3 N 19 28 10 15 1021.9 1021.8 0.0
24/05:00am 12.6 8.4 5.8 63 3.2 N 17 30 9 16 1021.7 1021.6 0.0
24/04:30am 12.3 8.1 5.7 64 3.1 N 17 22 9 12 1021.6 1021.5 0.0
24/04:00am 12.0 8.2 5.6 65 3.0 N 15 20 8 11 1021.4 1021.3 0.0
24/03:30am 12.1 8.2 5.5 64 3.1 N 15 20 8 11 1021.3 1021.2 0.0
24/03:00am 12.1 7.8 5.3 63 3.1 N 17 22 9 12 1021.1 1021.0 0.0
24/02:30am 12.0 7.3 5.2 63 3.1 N 19 24 10 13 1021.0 1020.9 0.0
24/02:00am 12.0 7.6 5.0 62 3.2 N 17 22 9 12 1021.0 1020.9 0.0
24/01:30am 12.3 8.3 4.8 60 3.5 N 15 17 8 9 1021.3 1021.2 0.0
24/01:00am 13.1 9.1 4.8 57 3.8 N 15 20 8 11 1021.5 1021.4 0.0
24/12:30am 13.5 8.7 4.4 54 4.2 N 19 28 10 15 1021.4 1021.3 0.0
24/12:00am 13.6 9.2 4.5 54 4.2 N 17 22 9 12 1021.3 1021.2 0.0
 
Date/Time
WST
Temp
°C
App
Temp
°C
Dew
Point
Rel
Hum
%
Delta-T
°C
Wind Press
QNH
hPa
Press
MSL
hPa
Rain
since 9 am
mm
Dir
 
Spd
km/h
Gust
km/h
Spd
kts
Gust
kts
23/11:30pm 13.7 9.3 4.6 54 4.2 N 17 24 9 13 1021.3 1021.2 0.0
23/11:00pm 13.6 9.2 4.7 55 4.1 N 17 24 9 13 1021.4 1021.3 0.0
23/10:30pm 13.8 9.5 5.2 56 4.0 N 17 26 9 14 1021.5 1021.4 0.0
23/10:00pm 14.1 10.2 5.2 55 4.2 N 15 24 8 13 1021.5 1021.4 0.0
23/09:30pm 14.2 9.5 5.3 55 4.2 N 19 28 10 15 1021.5 1021.4 0.0
23/09:00pm 14.5 9.6 3.9 49 4.8 N 19 28 10 15 1021.6 1021.5 0.0
23/08:30pm 14.8 10.8 2.7 44 5.4 N 13 19 7 10 1021.9 1021.8 0.0
23/08:00pm 15.1 11.1 2.6 43 5.6 N 13 20 7 11 1021.9 1021.8 0.0
23/07:30pm 15.0 11.1 3.2 45 5.4 N 13 17 7 9 1022.0 1021.9 0.0
23/07:00pm 15.1 11.3 3.9 47 5.1 N 13 17 7 9 1022.1 1022.0 0.0
23/06:30pm 15.5 11.4 2.0 40 6.0 NNE 13 15 7 8 1022.1 1022.0 0.0
23/06:00pm 15.5 11.7 1.6 39 6.1 NNE 11 13 6 7 1021.9 1021.8 0.0
23/05:30pm 15.8 12.3 1.5 38 6.3 N 9 11 5 6 1021.9 1021.8 0.0
23/05:00pm 16.3 12.4 1.2 36 6.6 NNE 11 13 6 7 1021.6 1021.5 0.0
23/04:30pm 16.9 13.0 1.4 35 6.9 NNE 11 13 6 7 1021.3 1021.2 0.0
23/04:00pm 17.8 13.9 0.9 32 7.5 NE 11 13 6 7 1021.4 1021.3 0.0
23/03:30pm 18.3 13.6 0.9 31 7.7 NNE 15 24 8 13 1021.5 1021.4 0.0
23/03:00pm 18.5 13.8 1.1 31 7.8 N 15 19 8 10 1021.7 1021.6 0.0
23/02:30pm 18.6 13.6 1.2 31 7.8 NNE 17 28 9 15 1021.4 1021.3 0.0
23/02:00pm 18.8 13.2 0.9 30 8.0 NNE 20 30 11 16 1021.6 1021.5 0.0
23/01:30pm 19.7 14.2 1.7 30 8.2 NNE 20 30 11 16 1021.6 1021.5 0.0
23/01:00pm 19.2 13.9 1.7 31 7.9 NNE 19 30 10 16 1021.7 1021.6 0.0
23/12:30pm 18.6 12.7 2.0 33 7.6 NNE 22 33 12 18 1022.1 1022.0 0.0
23/12:00pm 18.0 13.1 1.9 34 7.3 N 17 30 9 16 1022.7 1022.6 0.0
23/11:30am 17.7 11.5 2.1 35 7.1 N 24 35 13 19 1022.8 1022.7 0.0
23/11:00am 17.6 11.1 2.4 36 6.9 NNE 26 35 14 19 1023.3 1023.2 0.0
23/10:30am 16.8 10.3 2.4 38 6.5 NNE 26 39 14 21 1023.6 1023.5 0.0
23/10:00am 15.6 8.7 2.4 41 5.9 NNE 28 44 15 24 1024.1 1024.0 0.0
23/09:30am 15.4 8.5 2.6 42 5.8 NNE 28 41 15 22 1024.4 1024.3 0.0
23/09:13am 15.6 8.5 3.4 44 5.6 N 30 50 16 27 1024.5 1024.4 0.0
23/09:00am 13.8 6.6 3.0 48 4.8 N 30 43 16 23 1024.5 1024.4 0.0
23/08:30am 12.3 6.0 3.5 55 3.9 NNE 26 41 14 22 1024.8 1024.7 0.0
23/08:00am 11.3 4.5 3.1 57 3.6 NNE 28 39 15 21 1025.0 1024.9 0.0
23/07:30am 10.6 4.5 2.9 59 3.3 NNE 24 33 13 18 1025.0 1024.9 0.0
23/07:00am 10.3 4.6 2.9 60 3.2 NNE 22 35 12 19 1025.1 1025.0 0.0
23/06:30am 10.1 4.8 2.9 61 3.1 NNE 20 33 11 18 1025.1 1025.0 0.0
23/06:00am 9.8 4.5 3.1 63 2.9 NNE 20 30 11 16 1024.9 1024.8 0.0
23/05:30am 9.7 5.0 3.2 64 2.8 NNE 17 26 9 14 1025.1 1025.0 0.0
23/05:00am 9.4 5.1 3.2 65 2.7 NNE 15 26 8 14 1024.9 1024.8 0.0
23/04:30am 9.8 5.5 3.3 64 2.8 NNE 15 20 8 11 1025.0 1024.9 0.0
23/04:00am 10.1 6.2 3.6 64 2.8 NNE 13 20 7 11 1025.1 1025.0 0.0
23/03:30am 10.2 5.6 3.5 63 2.9 NNE 17 22 9 12 1025.2 1025.1 0.0
23/03:00am 10.6 5.9 3.4 61 3.1 NNE 17 24 9 13 1025.3 1025.2 0.0
23/02:30am 10.9 6.3 3.5 60 3.3 NNE 17 28 9 15 1025.3 1025.2 0.0
23/02:00am 10.6 6.3 3.4 61 3.1 NNE 15 24 8 13 1025.5 1025.4 0.0
23/01:30am 10.9 5.7 3.5 60 3.3 NNE 20 30 11 16 1025.4 1025.3 0.0
23/01:00am 10.5 4.8 3.1 60 3.2 NNE 22 33 12 18 1025.3 1025.2 0.0
23/12:30am 9.7 4.4 3.2 64 2.8 NNE 20 30 11 16 1025.6 1025.5 0.0
23/12:00am 9.3 4.7 3.5 67 2.5 NNE 17 24 9 13 1025.9 1025.8 0.0
 
Date/Time
WST
Temp
°C
App
Temp
°C
Dew
Point
Rel
Hum
%
Delta-T
°C
Wind Press
QNH
hPa
Press
MSL
hPa
Rain
since 9 am
mm
Dir
 
Spd
km/h
Gust
km/h
Spd
kts
Gust
kts
22/11:30pm 8.8 4.6 3.8 71 2.2 NNE 15 19 8 10 1026.5 1026.4 0.0
22/11:00pm 8.9 4.8 4.1 72 2.1 NE 15 22 8 12 1026.6 1026.5 0.0
22/10:30pm 9.1 4.7 4.5 73 2.0 NE 17 24 9 13 1026.9 1026.8 0.0
22/10:00pm 9.4 5.3 4.6 72 2.1 NE 15 19 8 10 1027.1 1027.0 0.0
22/09:30pm 9.8 5.8 5.0 72 2.2 NE 15 22 8 12 1027.0 1026.9 0.0
22/09:00pm 10.7 6.8 5.5 70 2.4 NE 15 20 8 11 1027.3 1027.2 0.0
22/08:30pm 10.7 7.4 6.3 74 2.1 NE 13 20 7 11 1027.2 1027.1 0.0
22/08:00pm 11.2 7.9 6.5 73 2.2 ENE 13 17 7 9 1027.2 1027.1 0.0
22/07:30pm 11.5 8.3 6.8 73 2.2 ENE 13 19 7 10 1027.4 1027.3 0.0
22/07:00pm 11.6 8.3 6.5 71 2.4 ENE 13 19 7 10 1027.2 1027.1 0.0
22/06:30pm 12.0 9.1 6.7 70 2.5 ENE 11 15 6 8 1027.0 1026.9 0.0
22/06:00pm 12.7 10.2 8.0 73 2.3 E 11 15 6 8 1027.0 1026.9 0.0
22/05:30pm 13.4 10.6 8.7 73 2.4 E 13 17 7 9 1027.0 1026.9 0.0
22/05:00pm 13.8 11.0 8.6 71 2.6 E 13 17 7 9 1026.7 1026.6 0.0
22/04:30pm 14.2 11.4 8.4 68 2.9 E 13 19 7 10 1026.7 1026.6 0.0
22/04:00pm 14.9 11.6 8.2 64 3.4 ESE 15 24 8 13 1026.8 1026.7 0.0
22/03:30pm 15.8 12.1 7.8 59 4.0 ESE 17 28 9 15 1026.7 1026.6 0.0
22/03:00pm 16.4 13.3 7.3 55 4.5 ESE 13 19 7 10 1026.2 1026.1 0.0
22/02:30pm 18.1 13.7 4.7 41 6.4 ENE 17 30 9 16 1026.5 1026.4 0.0
22/02:00pm 18.1 14.5 5.0 42 6.3 NE 13 24 7 13 1026.8 1026.7 0.0
22/01:30pm 18.7 14.8 5.5 42 6.5 NE 15 28 8 15 1027.2 1027.1 0.0
22/01:00pm 18.0 13.8 5.6 44 6.0 NNE 17 26 9 14 1027.6 1027.5 0.0
22/12:30pm 17.9 14.1 5.8 45 5.9 NE 15 26 8 14 1028.1 1028.0 0.0
22/12:00pm 16.7 12.8 5.3 47 5.4 NE 15 24 8 13 1028.7 1028.6 0.0
22/11:30am 16.7 13.0 6.2 50 5.1 NNE 15 24 8 13 1029.2 1029.2 0.0
22/11:00am 16.3 13.0 6.2 51 4.9 NNE 13 24 7 13 1029.9 1029.9 0.0
22/10:30am 16.0 11.9 6.4 53 4.7 NE 17 26 9 14 1030.7 1030.6 0.0
22/10:00am 16.0 12.1 7.2 56 4.3 NNE 17 28 9 15 1031.2 1031.1 0.0
22/09:30am 16.1 12.6 7.3 56 4.4 NNE 15 26 8 14 1031.5 1031.4 0.0
22/09:00am 15.0 11.2 7.5 61 3.7 NNE 17 24 9 13 1031.6 1031.5 0.0
22/08:30am 13.9 10.2 7.9 67 3.0 NNE 17 24 9 13 1031.4 1031.3 0.0
22/08:00am 11.7 8.2 7.2 74 2.2 NNE 15 24 8 13 1031.3 1031.2 0.0
22/07:30am 9.4 6.2 6.7 83 1.3 N 13 17 7 9 1031.3 1031.2 0.0
22/07:00am 7.5 4.2 6.4 93 0.5 NNE 13 15 7 8 1030.9 1030.8 0.0
22/06:30am 6.6 3.5 5.6 93 0.4 NNE 11 13 6 7 1030.8 1030.7 0.0
22/06:00am 6.8 3.4 5.7 93 0.5 NNE 13 15 7 8 1030.6 1030.5 0.0
22/05:30am 7.1 3.7 5.7 91 0.6 NNE 13 15 7 8 1030.4 1030.3 0.0
22/05:00am 8.1 4.5 6.6 90 0.7 NNE 15 19 8 10 1030.2 1030.1 0.0
22/04:30am 8.5 5.0 7.0 90 0.7 NNE 15 17 8 9 1030.0 1030.0 0.0
22/04:00am 8.7 5.6 7.2 90 0.7 NNE 13 17 7 9 1029.9 1029.9 0.0
22/03:30am 9.1 6.4 7.4 89 0.8 NNE 11 13 6 7 1029.7 1029.7 0.0
22/03:00am 9.5 6.9 7.6 88 0.9 NNE 11 15 6 8 1029.9 1029.9 0.0
22/02:30am 10.2 7.7 8.0 86 1.1 NNE 11 13 6 7 1029.9 1029.9 0.0
22/02:00am 11.0 8.5 8.4 84 1.3 NNE 11 13 6 7 1029.8 1029.8 0.0
22/01:30am 11.0 8.9 8.4 84 1.3 NNE 9 11 5 6 1030.0 1030.0 0.0
22/01:00am 11.5 9.5 8.5 82 1.5 NE 9 13 5 7 1030.3 1030.2 0.0
22/12:30am 11.5 9.6 8.9 84 1.3 N 9 11 5 6 1030.4 1030.3 0.0
22/12:00am 11.7 9.5 9.3 85 1.2 N 11 13 6 7 1030.4 1030.3 0.0
 
Date/Time
WST
Temp
°C
App
Temp
°C
Dew
Point
Rel
Hum
%
Delta-T
°C
Wind Press
QNH
hPa
Press
MSL
hPa
Rain
since 9 am
mm
Dir
 
Spd
km/h
Gust
km/h
Spd
kts
Gust
kts
21/11:30pm 11.6 9.4 9.5 87 1.1 NNE 11 13 6 7 1030.3 1030.2 0.0
21/11:00pm 11.8 10.1 9.7 87 1.1 ENE 9 15 5 8 1030.4 1030.3 0.0
21/10:30pm 12.3 10.2 9.9 85 1.2 NE 11 19 6 10 1030.4 1030.3 0.0
21/10:00pm 12.7 10.8 9.2 79 1.8 ENE 9 15 5 8 1030.4 1030.3 0.0

Other Formats:

Comma delimited format used in spreadsheet applications
http://www.bom.gov.au/fwo/IDW60801/IDW60801.94647.axf

JavaScript Object Notation format (JSON) in row-major order
http://www.bom.gov.au/fwo/IDW60801/IDW60801.94647.json